sensor_id;sensor_type;location;lat;lon;timestamp;P1;durP1;ratioP1;P2;durP2;ratioP2
11568;SDS011;5840;46.894;15.542;2023-05-08T00:01:56;11.30;;;10.50;;
11568;SDS011;5840;46.894;15.542;2023-05-08T00:04:23;10.70;;;10.00;;
11568;SDS011;5840;46.894;15.542;2023-05-08T00:06:50;11.40;;;10.50;;
11568;SDS011;5840;46.894;15.542;2023-05-08T00:09:17;11.63;;;10.57;;
11568;SDS011;5840;46.894;15.542;2023-05-08T00:11:44;10.97;;;10.17;;
11568;SDS011;5840;46.894;15.542;2023-05-08T00:14:11;11.13;;;10.23;;
11568;SDS011;5840;46.894;15.542;2023-05-08T00:16:38;11.47;;;10.57;;
11568;SDS011;5840;46.894;15.542;2023-05-08T00:19:07;11.03;;;10.07;;
11568;SDS011;5840;46.894;15.542;2023-05-08T00:21:33;11.33;;;10.30;;
11568;SDS011;5840;46.894;15.542;2023-05-08T00:24:01;12.80;;;11.33;;
11568;SDS011;5840;46.894;15.542;2023-05-08T00:26:27;11.90;;;10.93;;
11568;SDS011;5840;46.894;15.542;2023-05-08T00:28:54;12.50;;;11.40;;
11568;SDS011;5840;46.894;15.542;2023-05-08T00:31:21;12.53;;;11.63;;
11568;SDS011;5840;46.894;15.542;2023-05-08T00:33:49;11.87;;;10.77;;
11568;SDS011;5840;46.894;15.542;2023-05-08T00:36:17;12.73;;;11.73;;
11568;SDS011;5840;46.894;15.542;2023-05-08T00:38:44;14.00;;;12.77;;
11568;SDS011;5840;46.894;15.542;2023-05-08T00:41:11;12.53;;;11.53;;
11568;SDS011;5840;46.894;15.542;2023-05-08T00:43:38;13.27;;;12.17;;
11568;SDS011;5840;46.894;15.542;2023-05-08T00:46:05;12.80;;;11.90;;
11568;SDS011;5840;46.894;15.542;2023-05-08T00:48:33;12.53;;;11.67;;
11568;SDS011;5840;46.894;15.542;2023-05-08T00:51:01;13.33;;;12.33;;
11568;SDS011;5840;46.894;15.542;2023-05-08T00:53:34;14.23;;;13.20;;
11568;SDS011;5840;46.894;15.542;2023-05-08T00:56:04;13.97;;;12.87;;
11568;SDS011;5840;46.894;15.542;2023-05-08T00:58:31;14.23;;;13.13;;
11568;SDS011;5840;46.894;15.542;2023-05-08T01:00:58;13.83;;;12.67;;
11568;SDS011;5840;46.894;15.542;2023-05-08T01:03:26;14.17;;;13.03;;
11568;SDS011;5840;46.894;15.542;2023-05-08T01:05:53;14.23;;;12.93;;
11568;SDS011;5840;46.894;15.542;2023-05-08T01:08:21;14.40;;;13.10;;
11568;SDS011;5840;46.894;15.542;2023-05-08T01:10:52;14.90;;;13.70;;
11568;SDS011;5840;46.894;15.542;2023-05-08T01:13:27;14.50;;;13.40;;
11568;SDS011;5840;46.894;15.542;2023-05-08T01:16:02;14.97;;;13.77;;
11568;SDS011;5840;46.894;15.542;2023-05-08T01:18:39;14.57;;;13.53;;
11568;SDS011;5840;46.894;15.542;2023-05-08T01:21:12;15.03;;;13.83;;
11568;SDS011;5840;46.894;15.542;2023-05-08T01:23:55;13.97;;;12.97;;
11568;SDS011;5840;46.894;15.542;2023-05-08T01:26:57;15.47;;;14.27;;
11568;SDS011;5840;46.894;15.542;2023-05-08T01:29:50;16.03;;;14.77;;
11568;SDS011;5840;46.894;15.542;2023-05-08T01:32:44;15.73;;;14.43;;
11568;SDS011;5840;46.894;15.542;2023-05-08T01:35:16;15.77;;;14.40;;
11568;SDS011;5840;46.894;15.542;2023-05-08T01:37:50;16.30;;;15.03;;
11568;SDS011;5840;46.894;15.542;2023-05-08T01:40:24;15.50;;;14.30;;
11568;SDS011;5840;46.894;15.542;2023-05-08T01:43:02;15.90;;;14.43;;
11568;SDS011;5840;46.894;15.542;2023-05-08T01:45:48;16.20;;;14.87;;
11568;SDS011;5840;46.894;15.542;2023-05-08T01:48:21;15.70;;;14.40;;
11568;SDS011;5840;46.894;15.542;2023-05-08T01:50:54;15.47;;;14.27;;
11568;SDS011;5840;46.894;15.542;2023-05-08T01:53:27;15.97;;;14.63;;
11568;SDS011;5840;46.894;15.542;2023-05-08T01:55:59;15.60;;;14.37;;
11568;SDS011;5840;46.894;15.542;2023-05-08T01:58:28;16.43;;;15.10;;
11568;SDS011;5840;46.894;15.542;2023-05-08T02:00:58;15.90;;;14.70;;
11568;SDS011;5840;46.894;15.542;2023-05-08T02:03:28;16.00;;;14.60;;
11568;SDS011;5840;46.894;15.542;2023-05-08T02:05:56;15.47;;;14.17;;
11568;SDS011;5840;46.894;15.542;2023-05-08T02:08:25;16.40;;;15.00;;
11568;SDS011;5840;46.894;15.542;2023-05-08T02:10:56;16.23;;;14.93;;
11568;SDS011;5840;46.894;15.542;2023-05-08T02:13:25;17.33;;;15.93;;
11568;SDS011;5840;46.894;15.542;2023-05-08T02:15:53;16.63;;;15.13;;
11568;SDS011;5840;46.894;15.542;2023-05-08T02:18:23;16.87;;;15.50;;
11568;SDS011;5840;46.894;15.542;2023-05-08T02:20:52;16.93;;;15.43;;
11568;SDS011;5840;46.894;15.542;2023-05-08T02:23:21;17.50;;;16.10;;
11568;SDS011;5840;46.894;15.542;2023-05-08T02:25:50;16.90;;;15.40;;
11568;SDS011;5840;46.894;15.542;2023-05-08T02:28:18;17.63;;;16.13;;
11568;SDS011;5840;46.894;15.542;2023-05-08T02:30:46;17.80;;;16.37;;
11568;SDS011;5840;46.894;15.542;2023-05-08T02:33:13;17.60;;;16.10;;
11568;SDS011;5840;46.894;15.542;2023-05-08T02:35:42;18.40;;;16.83;;
11568;SDS011;5840;46.894;15.542;2023-05-08T02:38:12;16.93;;;15.43;;
11568;SDS011;5840;46.894;15.542;2023-05-08T02:40:42;18.00;;;16.40;;
11568;SDS011;5840;46.894;15.542;2023-05-08T02:43:11;18.90;;;17.33;;
11568;SDS011;5840;46.894;15.542;2023-05-08T02:45:39;19.03;;;17.43;;
11568;SDS011;5840;46.894;15.542;2023-05-08T02:48:11;17.53;;;16.03;;
11568;SDS011;5840;46.894;15.542;2023-05-08T02:50:44;24.67;;;22.27;;
11568;SDS011;5840;46.894;15.542;2023-05-08T02:53:23;19.13;;;17.63;;
11568;SDS011;5840;46.894;15.542;2023-05-08T02:55:58;18.27;;;16.77;;
11568;SDS011;5840;46.894;15.542;2023-05-08T02:58:33;18.20;;;16.60;;
11568;SDS011;5840;46.894;15.542;2023-05-08T03:01:07;18.87;;;17.27;;
11568;SDS011;5840;46.894;15.542;2023-05-08T03:03:45;18.90;;;17.30;;
11568;SDS011;5840;46.894;15.542;2023-05-08T03:06:20;18.27;;;16.77;;
11568;SDS011;5840;46.894;15.542;2023-05-08T03:08:52;18.73;;;17.13;;
11568;SDS011;5840;46.894;15.542;2023-05-08T03:11:25;18.43;;;16.93;;
11568;SDS011;5840;46.894;15.542;2023-05-08T03:13:57;18.77;;;17.37;;
11568;SDS011;5840;46.894;15.542;2023-05-08T03:16:27;19.23;;;17.60;;
11568;SDS011;5840;46.894;15.542;2023-05-08T03:18:58;19.00;;;17.40;;
11568;SDS011;5840;46.894;15.542;2023-05-08T03:21:29;18.23;;;16.70;;
11568;SDS011;5840;46.894;15.542;2023-05-08T03:23:58;19.53;;;17.93;;
11568;SDS011;5840;46.894;15.542;2023-05-08T03:26:27;20.47;;;18.47;;
11568;SDS011;5840;46.894;15.542;2023-05-08T03:28:54;19.13;;;17.53;;
11568;SDS011;5840;46.894;15.542;2023-05-08T03:31:22;19.90;;;18.20;;
11568;SDS011;5840;46.894;15.542;2023-05-08T03:33:51;20.30;;;18.53;;
11568;SDS011;5840;46.894;15.542;2023-05-08T03:36:20;20.03;;;18.43;;
11568;SDS011;5840;46.894;15.542;2023-05-08T03:38:49;19.57;;;17.83;;
11568;SDS011;5840;46.894;15.542;2023-05-08T03:41:17;19.93;;;18.23;;
11568;SDS011;5840;46.894;15.542;2023-05-08T03:43:44;20.07;;;18.10;;
11568;SDS011;5840;46.894;15.542;2023-05-08T03:46:11;20.30;;;18.60;;
11568;SDS011;5840;46.894;15.542;2023-05-08T03:48:39;22.30;;;20.30;;
11568;SDS011;5840;46.894;15.542;2023-05-08T03:51:07;21.00;;;19.13;;
11568;SDS011;5840;46.894;15.542;2023-05-08T03:53:34;23.33;;;21.13;;
11568;SDS011;5840;46.894;15.542;2023-05-08T03:56:01;22.77;;;20.67;;
11568;SDS011;5840;46.894;15.542;2023-05-08T03:58:32;25.03;;;22.20;;
11568;SDS011;5840;46.894;15.542;2023-05-08T04:01:04;23.57;;;21.17;;
11568;SDS011;5840;46.894;15.542;2023-05-08T04:03:41;26.43;;;23.93;;
11568;SDS011;5840;46.894;15.542;2023-05-08T04:06:16;24.30;;;21.97;;
11568;SDS011;5840;46.894;15.542;2023-05-08T04:08:52;26.03;;;23.50;;
11568;SDS011;5840;46.894;15.542;2023-05-08T04:11:29;24.83;;;22.63;;
11568;SDS011;5840;46.894;15.542;2023-05-08T04:13:59;24.90;;;22.60;;
11568;SDS011;5840;46.894;15.542;2023-05-08T04:16:29;25.47;;;23.17;;
11568;SDS011;5840;46.894;15.542;2023-05-08T04:19:06;25.63;;;23.33;;
11568;SDS011;5840;46.894;15.542;2023-05-08T04:21:38;25.57;;;23.17;;
11568;SDS011;5840;46.894;15.542;2023-05-08T04:24:09;26.57;;;24.17;;
11568;SDS011;5840;46.894;15.542;2023-05-08T04:26:40;25.63;;;23.20;;
11568;SDS011;5840;46.894;15.542;2023-05-08T04:29:09;26.13;;;23.53;;
11568;SDS011;5840;46.894;15.542;2023-05-08T04:31:36;26.77;;;24.20;;
11568;SDS011;5840;46.894;15.542;2023-05-08T04:34:04;26.20;;;23.80;;
11568;SDS011;5840;46.894;15.542;2023-05-08T04:36:33;25.57;;;23.27;;
11568;SDS011;5840;46.894;15.542;2023-05-08T04:39:00;25.23;;;22.67;;
11568;SDS011;5840;46.894;15.542;2023-05-08T04:41:27;25.27;;;23.03;;
11568;SDS011;5840;46.894;15.542;2023-05-08T04:43:54;26.23;;;23.60;;
11568;SDS011;5840;46.894;15.542;2023-05-08T04:46:23;27.87;;;25.33;;
11568;SDS011;5840;46.894;15.542;2023-05-08T04:48:50;28.20;;;25.57;;
11568;SDS011;5840;46.894;15.542;2023-05-08T04:51:17;27.17;;;24.40;;
11568;SDS011;5840;46.894;15.542;2023-05-08T04:53:43;28.83;;;25.93;;
11568;SDS011;5840;46.894;15.542;2023-05-08T04:56:10;27.97;;;25.37;;
11568;SDS011;5840;46.894;15.542;2023-05-08T04:58:37;28.10;;;25.50;;
11568;SDS011;5840;46.894;15.542;2023-05-08T05:01:04;26.93;;;24.30;;
11568;SDS011;5840;46.894;15.542;2023-05-08T05:03:32;26.97;;;24.40;;
11568;SDS011;5840;46.894;15.542;2023-05-08T05:05:59;25.90;;;23.60;;
11568;SDS011;5840;46.894;15.542;2023-05-08T05:08:27;27.97;;;25.13;;
11568;SDS011;5840;46.894;15.542;2023-05-08T05:10:54;28.40;;;25.53;;
11568;SDS011;5840;46.894;15.542;2023-05-08T05:13:20;26.73;;;24.27;;
11568;SDS011;5840;46.894;15.542;2023-05-08T05:15:47;25.97;;;23.37;;
11568;SDS011;5840;46.894;15.542;2023-05-08T05:18:15;27.47;;;24.97;;
11568;SDS011;5840;46.894;15.542;2023-05-08T05:20:44;26.53;;;24.03;;
11568;SDS011;5840;46.894;15.542;2023-05-08T05:23:11;27.63;;;24.93;;
11568;SDS011;5840;46.894;15.542;2023-05-08T05:25:38;25.43;;;23.03;;
11568;SDS011;5840;46.894;15.542;2023-05-08T05:28:05;26.33;;;23.83;;
11568;SDS011;5840;46.894;15.542;2023-05-08T05:30:32;25.23;;;23.00;;
11568;SDS011;5840;46.894;15.542;2023-05-08T05:32:59;27.23;;;24.80;;
11568;SDS011;5840;46.894;15.542;2023-05-08T05:35:26;24.77;;;22.50;;
11568;SDS011;5840;46.894;15.542;2023-05-08T05:37:54;25.63;;;23.33;;
11568;SDS011;5840;46.894;15.542;2023-05-08T05:40:21;26.17;;;23.73;;
11568;SDS011;5840;46.894;15.542;2023-05-08T05:42:48;26.53;;;24.13;;
11568;SDS011;5840;46.894;15.542;2023-05-08T05:45:15;26.43;;;24.00;;
11568;SDS011;5840;46.894;15.542;2023-05-08T05:47:43;28.00;;;25.33;;
11568;SDS011;5840;46.894;15.542;2023-05-08T05:50:14;25.60;;;23.30;;
11568;SDS011;5840;46.894;15.542;2023-05-08T05:52:42;26.73;;;24.17;;
11568;SDS011;5840;46.894;15.542;2023-05-08T05:55:10;26.47;;;23.83;;
11568;SDS011;5840;46.894;15.542;2023-05-08T05:57:37;28.03;;;25.33;;
11568;SDS011;5840;46.894;15.542;2023-05-08T06:00:05;25.70;;;23.30;;
11568;SDS011;5840;46.894;15.542;2023-05-08T06:02:34;26.40;;;24.00;;
11568;SDS011;5840;46.894;15.542;2023-05-08T06:05:01;25.30;;;22.87;;
11568;SDS011;5840;46.894;15.542;2023-05-08T06:07:29;25.97;;;23.57;;
11568;SDS011;5840;46.894;15.542;2023-05-08T06:09:55;25.87;;;23.47;;
11568;SDS011;5840;46.894;15.542;2023-05-08T06:12:24;26.43;;;23.93;;
11568;SDS011;5840;46.894;15.542;2023-05-08T06:14:52;27.07;;;24.30;;
11568;SDS011;5840;46.894;15.542;2023-05-08T06:17:19;27.30;;;24.67;;
11568;SDS011;5840;46.894;15.542;2023-05-08T06:19:47;26.37;;;23.97;;
11568;SDS011;5840;46.894;15.542;2023-05-08T06:22:14;26.70;;;24.30;;
11568;SDS011;5840;46.894;15.542;2023-05-08T06:24:42;26.40;;;23.90;;
11568;SDS011;5840;46.894;15.542;2023-05-08T06:27:09;25.43;;;22.97;;
11568;SDS011;5840;46.894;15.542;2023-05-08T06:29:37;26.70;;;24.17;;
11568;SDS011;5840;46.894;15.542;2023-05-08T06:32:04;26.47;;;23.97;;
11568;SDS011;5840;46.894;15.542;2023-05-08T06:34:31;26.50;;;24.10;;
11568;SDS011;5840;46.894;15.542;2023-05-08T06:36:58;25.37;;;23.07;;
11568;SDS011;5840;46.894;15.542;2023-05-08T06:39:25;26.63;;;24.03;;
11568;SDS011;5840;46.894;15.542;2023-05-08T06:41:52;25.57;;;23.27;;
11568;SDS011;5840;46.894;15.542;2023-05-08T06:44:19;25.10;;;22.77;;
11568;SDS011;5840;46.894;15.542;2023-05-08T06:46:47;25.47;;;23.07;;
11568;SDS011;5840;46.894;15.542;2023-05-08T06:49:14;25.73;;;23.33;;
11568;SDS011;5840;46.894;15.542;2023-05-08T06:51:41;26.03;;;23.63;;
11568;SDS011;5840;46.894;15.542;2023-05-08T06:54:08;25.90;;;23.50;;
11568;SDS011;5840;46.894;15.542;2023-05-08T06:56:35;26.33;;;23.93;;
11568;SDS011;5840;46.894;15.542;2023-05-08T06:59:01;26.13;;;23.80;;
11568;SDS011;5840;46.894;15.542;2023-05-08T07:01:28;26.50;;;23.90;;
11568;SDS011;5840;46.894;15.542;2023-05-08T07:03:56;27.00;;;24.23;;
11568;SDS011;5840;46.894;15.542;2023-05-08T07:06:24;27.60;;;25.10;;
11568;SDS011;5840;46.894;15.542;2023-05-08T07:08:51;26.70;;;24.30;;
11568;SDS011;5840;46.894;15.542;2023-05-08T07:11:18;26.53;;;23.93;;
11568;SDS011;5840;46.894;15.542;2023-05-08T07:13:45;26.20;;;23.80;;
11568;SDS011;5840;46.894;15.542;2023-05-08T07:16:12;27.13;;;24.53;;
11568;SDS011;5840;46.894;15.542;2023-05-08T07:18:39;25.17;;;22.77;;
11568;SDS011;5840;46.894;15.542;2023-05-08T07:21:07;26.30;;;23.83;;
11568;SDS011;5840;46.894;15.542;2023-05-08T07:23:34;25.50;;;23.20;;
11568;SDS011;5840;46.894;15.542;2023-05-08T07:26:01;24.77;;;22.47;;
11568;SDS011;5840;46.894;15.542;2023-05-08T07:28:28;25.20;;;22.90;;
11568;SDS011;5840;46.894;15.542;2023-05-08T07:30:55;25.57;;;23.23;;
11568;SDS011;5840;46.894;15.542;2023-05-08T07:33:22;25.20;;;23.00;;
11568;SDS011;5840;46.894;15.542;2023-05-08T07:35:49;24.93;;;22.63;;
11568;SDS011;5840;46.894;15.542;2023-05-08T07:38:18;24.47;;;22.27;;
11568;SDS011;5840;46.894;15.542;2023-05-08T07:40:45;25.17;;;22.83;;
11568;SDS011;5840;46.894;15.542;2023-05-08T07:43:13;25.20;;;23.00;;
11568;SDS011;5840;46.894;15.542;2023-05-08T07:45:40;24.87;;;22.60;;
11568;SDS011;5840;46.894;15.542;2023-05-08T07:48:07;24.17;;;21.83;;
11568;SDS011;5840;46.894;15.542;2023-05-08T07:50:34;24.60;;;22.30;;
11568;SDS011;5840;46.894;15.542;2023-05-08T07:53:01;25.40;;;23.10;;
11568;SDS011;5840;46.894;15.542;2023-05-08T07:55:30;24.27;;;22.17;;
11568;SDS011;5840;46.894;15.542;2023-05-08T07:57:57;25.20;;;22.90;;
11568;SDS011;5840;46.894;15.542;2023-05-08T08:00:24;25.07;;;22.73;;
11568;SDS011;5840;46.894;15.542;2023-05-08T08:02:52;24.17;;;22.03;;
11568;SDS011;5840;46.894;15.542;2023-05-08T08:05:19;24.97;;;22.53;;
11568;SDS011;5840;46.894;15.542;2023-05-08T08:07:46;23.77;;;21.57;;
11568;SDS011;5840;46.894;15.542;2023-05-08T08:10:13;25.43;;;23.13;;
11568;SDS011;5840;46.894;15.542;2023-05-08T08:12:41;22.93;;;20.93;;
11568;SDS011;5840;46.894;15.542;2023-05-08T08:15:08;23.80;;;21.70;;
11568;SDS011;5840;46.894;15.542;2023-05-08T08:17:36;24.80;;;22.57;;
11568;SDS011;5840;46.894;15.542;2023-05-08T08:20:03;25.60;;;23.13;;
11568;SDS011;5840;46.894;15.542;2023-05-08T08:22:31;25.33;;;23.03;;
11568;SDS011;5840;46.894;15.542;2023-05-08T08:24:58;25.13;;;22.83;;
11568;SDS011;5840;46.894;15.542;2023-05-08T08:27:24;25.13;;;22.83;;
11568;SDS011;5840;46.894;15.542;2023-05-08T08:29:53;24.90;;;22.70;;
11568;SDS011;5840;46.894;15.542;2023-05-08T08:32:19;24.77;;;22.50;;
11568;SDS011;5840;46.894;15.542;2023-05-08T08:34:46;24.17;;;22.00;;
11568;SDS011;5840;46.894;15.542;2023-05-08T08:37:13;25.13;;;22.87;;
11568;SDS011;5840;46.894;15.542;2023-05-08T08:39:40;24.63;;;22.43;;
11568;SDS011;5840;46.894;15.542;2023-05-08T08:42:07;25.27;;;23.00;;
11568;SDS011;5840;46.894;15.542;2023-05-08T08:44:33;25.27;;;22.97;;
11568;SDS011;5840;46.894;15.542;2023-05-08T08:47:02;25.77;;;23.47;;
11568;SDS011;5840;46.894;15.542;2023-05-08T08:49:31;25.07;;;22.77;;
11568;SDS011;5840;46.894;15.542;2023-05-08T08:52:02;25.17;;;22.97;;
11568;SDS011;5840;46.894;15.542;2023-05-08T08:54:37;24.83;;;22.70;;
11568;SDS011;5840;46.894;15.542;2023-05-08T08:57:05;24.80;;;22.63;;
11568;SDS011;5840;46.894;15.542;2023-05-08T08:59:34;25.53;;;23.23;;
11568;SDS011;5840;46.894;15.542;2023-05-08T09:02:07;25.97;;;23.67;;
11568;SDS011;5840;46.894;15.542;2023-05-08T09:04:39;26.00;;;23.70;;
11568;SDS011;5840;46.894;15.542;2023-05-08T09:07:05;26.00;;;23.73;;
11568;SDS011;5840;46.894;15.542;2023-05-08T09:09:33;24.00;;;21.90;;
11568;SDS011;5840;46.894;15.542;2023-05-08T09:12:01;26.67;;;24.23;;
11568;SDS011;5840;46.894;15.542;2023-05-08T09:14:29;24.70;;;22.40;;
11568;SDS011;5840;46.894;15.542;2023-05-08T09:16:55;26.03;;;23.70;;
11568;SDS011;5840;46.894;15.542;2023-05-08T09:19:24;26.00;;;23.60;;
11568;SDS011;5840;46.894;15.542;2023-05-08T09:21:53;26.43;;;24.17;;
11568;SDS011;5840;46.894;15.542;2023-05-08T09:24:20;26.07;;;23.53;;
11568;SDS011;5840;46.894;15.542;2023-05-08T09:26:47;26.60;;;24.30;;
11568;SDS011;5840;46.894;15.542;2023-05-08T09:29:15;27.43;;;24.60;;
11568;SDS011;5840;46.894;15.542;2023-05-08T09:31:43;25.77;;;23.57;;
11568;SDS011;5840;46.894;15.542;2023-05-08T09:34:12;25.77;;;23.30;;
11568;SDS011;5840;46.894;15.542;2023-05-08T09:36:50;27.10;;;24.77;;
11568;SDS011;5840;46.894;15.542;2023-05-08T09:39:20;26.60;;;24.20;;
11568;SDS011;5840;46.894;15.542;2023-05-08T09:41:57;26.90;;;24.30;;
11568;SDS011;5840;46.894;15.542;2023-05-08T09:44:24;27.60;;;25.03;;
11568;SDS011;5840;46.894;15.542;2023-05-08T09:46:51;27.70;;;25.10;;
11568;SDS011;5840;46.894;15.542;2023-05-08T09:49:35;28.47;;;25.83;;
11568;SDS011;5840;46.894;15.542;2023-05-08T09:52:05;27.47;;;24.83;;
11568;SDS011;5840;46.894;15.542;2023-05-08T09:54:32;26.73;;;24.20;;
11568;SDS011;5840;46.894;15.542;2023-05-08T09:56:59;27.80;;;25.20;;
11568;SDS011;5840;46.894;15.542;2023-05-08T09:59:35;28.40;;;25.57;;
11568;SDS011;5840;46.894;15.542;2023-05-08T10:02:08;27.50;;;24.90;;
11568;SDS011;5840;46.894;15.542;2023-05-08T10:04:36;27.17;;;24.77;;
11568;SDS011;5840;46.894;15.542;2023-05-08T10:07:04;27.70;;;25.03;;
11568;SDS011;5840;46.894;15.542;2023-05-08T10:09:31;26.90;;;24.20;;
11568;SDS011;5840;46.894;15.542;2023-05-08T10:11:58;27.63;;;24.93;;
11568;SDS011;5840;46.894;15.542;2023-05-08T10:14:25;27.50;;;24.80;;
11568;SDS011;5840;46.894;15.542;2023-05-08T10:16:52;27.13;;;24.53;;
11568;SDS011;5840;46.894;15.542;2023-05-08T10:19:21;27.03;;;24.43;;
11568;SDS011;5840;46.894;15.542;2023-05-08T10:21:48;27.97;;;25.30;;
11568;SDS011;5840;46.894;15.542;2023-05-08T10:24:18;27.27;;;24.43;;
11568;SDS011;5840;46.894;15.542;2023-05-08T10:26:55;26.90;;;24.07;;
11568;SDS011;5840;46.894;15.542;2023-05-08T10:29:27;27.40;;;24.67;;
11568;SDS011;5840;46.894;15.542;2023-05-08T10:31:58;26.97;;;24.10;;
11568;SDS011;5840;46.894;15.542;2023-05-08T10:34:27;27.10;;;24.50;;
11568;SDS011;5840;46.894;15.542;2023-05-08T10:36:57;27.40;;;24.63;;
11568;SDS011;5840;46.894;15.542;2023-05-08T10:39:26;27.83;;;25.03;;
11568;SDS011;5840;46.894;15.542;2023-05-08T10:41:55;27.70;;;25.00;;
11568;SDS011;5840;46.894;15.542;2023-05-08T10:44:22;27.20;;;24.43;;
11568;SDS011;5840;46.894;15.542;2023-05-08T10:46:52;27.40;;;24.70;;
11568;SDS011;5840;46.894;15.542;2023-05-08T10:49:24;28.10;;;25.23;;
11568;SDS011;5840;46.894;15.542;2023-05-08T10:52:05;25.97;;;23.40;;
11568;SDS011;5840;46.894;15.542;2023-05-08T10:54:42;27.70;;;24.90;;
11568;SDS011;5840;46.894;15.542;2023-05-08T10:57:17;27.17;;;24.37;;
11568;SDS011;5840;46.894;15.542;2023-05-08T10:59:44;26.70;;;23.93;;
11568;SDS011;5840;46.894;15.542;2023-05-08T11:02:11;25.67;;;23.27;;
11568;SDS011;5840;46.894;15.542;2023-05-08T11:04:38;25.27;;;22.67;;
11568;SDS011;5840;46.894;15.542;2023-05-08T11:07:05;23.50;;;21.20;;
11568;SDS011;5840;46.894;15.542;2023-05-08T11:09:45;25.40;;;22.90;;
11568;SDS011;5840;46.894;15.542;2023-05-08T11:12:22;23.83;;;21.53;;
11568;SDS011;5840;46.894;15.542;2023-05-08T11:14:56;24.97;;;22.63;;
11568;SDS011;5840;46.894;15.542;2023-05-08T11:17:26;24.63;;;22.17;;
11568;SDS011;5840;46.894;15.542;2023-05-08T11:19:54;25.43;;;22.93;;
11568;SDS011;5840;46.894;15.542;2023-05-08T11:22:23;24.87;;;22.57;;
11568;SDS011;5840;46.894;15.542;2023-05-08T11:24:58;22.00;;;19.83;;
11568;SDS011;5840;46.894;15.542;2023-05-08T11:27:34;24.17;;;21.77;;
11568;SDS011;5840;46.894;15.542;2023-05-08T11:30:24;24.00;;;21.43;;
11568;SDS011;5840;46.894;15.542;2023-05-08T11:33:12;24.07;;;21.80;;
11568;SDS011;5840;46.894;15.542;2023-05-08T11:35:51;24.67;;;22.27;;
11568;SDS011;5840;46.894;15.542;2023-05-08T11:38:21;24.03;;;21.67;;
11568;SDS011;5840;46.894;15.542;2023-05-08T11:41:03;23.00;;;20.70;;
11568;SDS011;5840;46.894;15.542;2023-05-08T11:43:43;23.23;;;20.97;;
11568;SDS011;5840;46.894;15.542;2023-05-08T11:46:23;23.07;;;20.77;;
11568;SDS011;5840;46.894;15.542;2023-05-08T11:49:04;22.77;;;20.30;;
11568;SDS011;5840;46.894;15.542;2023-05-08T11:51:35;22.30;;;20.07;;
11568;SDS011;5840;46.894;15.542;2023-05-08T11:54:03;24.17;;;21.73;;
11568;SDS011;5840;46.894;15.542;2023-05-08T11:56:32;23.03;;;20.80;;
11568;SDS011;5840;46.894;15.542;2023-05-08T11:59:02;24.10;;;21.70;;
11568;SDS011;5840;46.894;15.542;2023-05-08T12:01:30;22.57;;;20.27;;
11568;SDS011;5840;46.894;15.542;2023-05-08T12:04:00;21.33;;;19.23;;
11568;SDS011;5840;46.894;15.542;2023-05-08T12:06:31;21.47;;;19.30;;
11568;SDS011;5840;46.894;15.542;2023-05-08T12:08:59;21.20;;;19.10;;
11568;SDS011;5840;46.894;15.542;2023-05-08T12:11:28;22.43;;;20.20;;
11568;SDS011;5840;46.894;15.542;2023-05-08T12:13:57;22.37;;;20.27;;
11568;SDS011;5840;46.894;15.542;2023-05-08T12:16:23;22.63;;;20.53;;
11568;SDS011;5840;46.894;15.542;2023-05-08T12:18:51;22.73;;;20.47;;
11568;SDS011;5840;46.894;15.542;2023-05-08T12:21:18;23.07;;;20.77;;
11568;SDS011;5840;46.894;15.542;2023-05-08T12:23:46;22.17;;;19.97;;
11568;SDS011;5840;46.894;15.542;2023-05-08T12:26:14;22.97;;;20.67;;
11568;SDS011;5840;46.894;15.542;2023-05-08T12:28:43;22.57;;;20.37;;
11568;SDS011;5840;46.894;15.542;2023-05-08T12:31:13;21.03;;;19.13;;
11568;SDS011;5840;46.894;15.542;2023-05-08T12:33:40;23.37;;;21.07;;
11568;SDS011;5840;46.894;15.542;2023-05-08T12:36:07;24.53;;;22.03;;
11568;SDS011;5840;46.894;15.542;2023-05-08T12:38:34;22.97;;;20.87;;
11568;SDS011;5840;46.894;15.542;2023-05-08T12:41:01;25.73;;;23.13;;
11568;SDS011;5840;46.894;15.542;2023-05-08T12:43:31;24.10;;;21.77;;
11568;SDS011;5840;46.894;15.542;2023-05-08T12:45:59;23.97;;;21.67;;
11568;SDS011;5840;46.894;15.542;2023-05-08T12:48:27;24.77;;;22.37;;
11568;SDS011;5840;46.894;15.542;2023-05-08T12:50:54;22.37;;;20.30;;
11568;SDS011;5840;46.894;15.542;2023-05-08T12:53:28;24.37;;;22.03;;
11568;SDS011;5840;46.894;15.542;2023-05-08T12:56:00;24.37;;;22.03;;
11568;SDS011;5840;46.894;15.542;2023-05-08T12:58:31;23.33;;;21.07;;
11568;SDS011;5840;46.894;15.542;2023-05-08T13:01:03;25.47;;;21.67;;
11568;SDS011;5840;46.894;15.542;2023-05-08T13:03:35;24.00;;;21.70;;
11568;SDS011;5840;46.894;15.542;2023-05-08T13:06:02;23.27;;;21.07;;
11568;SDS011;5840;46.894;15.542;2023-05-08T13:08:30;23.67;;;21.40;;
11568;SDS011;5840;46.894;15.542;2023-05-08T13:10:58;24.47;;;22.17;;
11568;SDS011;5840;46.894;15.542;2023-05-08T13:13:26;23.50;;;21.40;;
11568;SDS011;5840;46.894;15.542;2023-05-08T13:15:55;22.27;;;20.17;;
11568;SDS011;5840;46.894;15.542;2023-05-08T13:18:23;21.90;;;19.87;;
11568;SDS011;5840;46.894;15.542;2023-05-08T13:20:52;23.00;;;20.97;;
11568;SDS011;5840;46.894;15.542;2023-05-08T13:23:20;22.17;;;19.97;;
11568;SDS011;5840;46.894;15.542;2023-05-08T13:25:47;22.20;;;20.03;;
11568;SDS011;5840;46.894;15.542;2023-05-08T13:28:14;22.57;;;20.40;;
11568;SDS011;5840;46.894;15.542;2023-05-08T13:30:41;22.23;;;20.13;;
11568;SDS011;5840;46.894;15.542;2023-05-08T13:33:08;22.43;;;20.23;;
11568;SDS011;5840;46.894;15.542;2023-05-08T13:35:35;22.53;;;20.50;;
11568;SDS011;5840;46.894;15.542;2023-05-08T13:38:04;23.03;;;20.80;;
11568;SDS011;5840;46.894;15.542;2023-05-08T13:40:31;22.47;;;20.27;;
11568;SDS011;5840;46.894;15.542;2023-05-08T13:42:58;22.10;;;20.00;;
11568;SDS011;5840;46.894;15.542;2023-05-08T13:45:25;23.77;;;21.47;;
11568;SDS011;5840;46.894;15.542;2023-05-08T13:47:52;24.27;;;21.67;;
11568;SDS011;5840;46.894;15.542;2023-05-08T13:50:19;24.70;;;22.23;;
11568;SDS011;5840;46.894;15.542;2023-05-08T13:52:47;24.67;;;22.07;;
11568;SDS011;5840;46.894;15.542;2023-05-08T13:55:16;24.97;;;22.57;;
11568;SDS011;5840;46.894;15.542;2023-05-08T13:57:45;22.30;;;20.10;;
11568;SDS011;5840;46.894;15.542;2023-05-08T14:00:12;24.20;;;21.90;;
11568;SDS011;5840;46.894;15.542;2023-05-08T14:02:39;22.00;;;19.80;;
11568;SDS011;5840;46.894;15.542;2023-05-08T14:05:07;22.50;;;20.30;;
11568;SDS011;5840;46.894;15.542;2023-05-08T14:07:34;21.00;;;19.10;;
11568;SDS011;5840;46.894;15.542;2023-05-08T14:10:01;21.27;;;19.07;;
11568;SDS011;5840;46.894;15.542;2023-05-08T14:12:29;22.70;;;20.50;;
11568;SDS011;5840;46.894;15.542;2023-05-08T14:14:59;22.80;;;20.50;;
11568;SDS011;5840;46.894;15.542;2023-05-08T14:17:27;24.40;;;21.97;;
11568;SDS011;5840;46.894;15.542;2023-05-08T14:19:54;22.97;;;20.87;;
11568;SDS011;5840;46.894;15.542;2023-05-08T14:22:21;23.27;;;20.87;;
11568;SDS011;5840;46.894;15.542;2023-05-08T14:24:47;21.93;;;19.97;;
11568;SDS011;5840;46.894;15.542;2023-05-08T14:27:14;22.87;;;20.63;;
11568;SDS011;5840;46.894;15.542;2023-05-08T14:29:43;21.60;;;19.50;;
11568;SDS011;5840;46.894;15.542;2023-05-08T14:32:10;23.97;;;21.77;;
11568;SDS011;5840;46.894;15.542;2023-05-08T14:34:36;23.67;;;21.57;;